Terminal Aerodrome Forecast
Issued by NWS

Home | Current Version | Previous Version | Text Only | Print | Product List | Glossary On
Versions: 1 2 3 4 5 6 7 8 9 10 11 12 13 14 15 16 17 18 19 20
000
FTUS44 KLZK 271100
TAFHRO
TAF
KHRO 271126Z 2712/2812 09004KT P6SM BKN060 OVC100
     FM271400 09010G18KT P6SM BKN050 OVC100
     FM272200 05007KT P6SM VCSH SCT035 BKN050 PROB30 2803/2809 -SHRA
      BKN035=

USA.gov is the U.S. government's official web portal to all federal, state and local government web resources and services.